Time;durP1;ratioP1;P1;durP2;ratioP2;P2;SDS_P1;SDS_P2;PMS_P1;PMS_P2;Temp;Humidity;BMP_temperature;BMP_pressure;BME280_temperature;BME280_humidity;BME280_pressure;Samples;Min_cycle;Max_cycle;Signal;HPM_P1;HPM_P2
2021/07/19 00:01:41;;;;;;;;;10.25;6.00;;;;;22.86;57.90;101759.59;5011917;28;45733;-69
2021/07/19 00:04:06;;;;;;;;;6.75;6.75;;;;;22.82;57.75;101756.47;5008222;28;45522;-70
2021/07/19 00:06:32;;;;;;;;;5.25;5.00;;;;;22.80;57.89;101755.00;5007102;28;45547;-70
2021/07/19 00:08:57;;;;;;;;;8.00;6.50;;;;;22.76;58.22;101757.31;5006853;28;45597;-69
2021/07/19 00:11:23;;;;;;;;;6.75;6.00;;;;;22.73;58.10;101752.34;5008451;28;45669;-69
2021/07/19 00:13:49;;;;;;;;;7.00;5.75;;;;;22.71;58.06;101760.59;4993238;28;45661;-69
2021/07/19 00:16:14;;;;;;;;;5.00;3.00;;;;;22.67;58.16;101755.84;5005251;28;47109;-68
2021/07/19 00:18:40;;;;;;;;;6.25;5.75;;;;;22.64;58.10;101762.47;5007897;28;45399;-68
2021/07/19 00:21:05;;;;;;;;;7.00;6.50;;;;;22.59;58.45;101751.47;5003458;28;46062;-68
2021/07/19 00:23:31;;;;;;;;;5.00;5.00;;;;;22.58;58.74;101757.09;5004124;28;46140;-69
2021/07/19 00:25:56;;;;;;;;;4.00;4.00;;;;;22.54;58.80;101757.47;5001391;28;46438;-69
2021/07/19 00:28:22;;;;;;;;;6.50;6.50;;;;;22.51;58.67;101759.75;5003859;28;45536;-68
2021/07/19 00:30:48;;;;;;;;;6.00;6.00;;;;;22.46;58.91;101748.75;5008891;28;45513;-71
2021/07/19 00:33:14;;;;;;;;;6.50;6.50;;;;;22.43;59.16;101755.38;5003624;28;45586;-67
2021/07/19 00:35:40;;;;;;;;;7.75;7.00;;;;;22.40;59.22;101755.78;5007611;28;45906;-70
2021/07/19 00:38:06;;;;;;;;;9.25;5.25;;;;;22.36;59.18;101754.53;5005821;28;45492;-72
2021/07/19 00:40:35;;;;;;;;;5.75;5.50;;;;;22.34;59.32;101759.28;5007030;28;45636;-69
2021/07/19 00:43:01;;;;;;;;;6.25;5.00;;;;;22.31;59.37;101765.09;5008076;28;45540;-69
2021/07/19 00:45:28;;;;;;;;;9.00;7.25;;;;;22.28;59.38;101754.72;5006558;28;45485;-68
2021/07/19 00:47:56;;;;;;;;;6.50;6.50;;;;;22.25;59.57;101753.25;5005513;28;45941;-67
2021/07/19 00:50:23;;;;;;;;;6.00;6.00;;;;;22.22;59.79;101750.13;4997550;28;45665;-71
2021/07/19 00:52:50;;;;;;;;;7.00;6.00;;;;;22.19;59.92;101756.72;5004141;28;45641;-68
2021/07/19 00:55:17;;;;;;;;;8.50;6.75;;;;;22.17;59.89;101752.56;5005854;28;46187;-69
2021/07/19 00:57:48;;;;;;;;;7.00;6.25;;;;;22.14;60.09;101758.38;5010033;28;45664;-69
2021/07/19 01:00:15;;;;;;;;;7.75;7.25;;;;;22.09;60.05;101751.72;5005886;28;45554;-67
2021/07/19 01:02:49;;;;;;;;;4.75;4.75;;;;;22.05;60.40;101758.53;5002197;28;45622;-68
2021/07/19 01:05:16;;;;;;;;;6.00;6.00;;;;;22.02;60.52;101756.25;5004018;28;46391;-69
2021/07/19 01:07:43;;;;;;;;;12.50;6.75;;;;;22.00;60.58;101752.91;5009551;28;45473;-69
2021/07/19 01:10:19;;;;;;;;;8.50;6.50;;;;;21.98;60.64;101752.28;5004609;28;45532;-69
2021/07/19 01:12:47;;;;;;;;;7.00;7.00;;;;;21.96;60.40;101746.28;5009474;28;45547;-69
2021/07/19 01:15:13;;;;;;;;;7.75;6.00;;;;;21.93;60.59;101749.34;5006448;28;45531;-71
2021/07/19 01:17:39;;;;;;;;;6.75;5.00;;;;;21.89;60.76;101740.88;5007766;28;45504;-71
2021/07/19 01:20:05;;;;;;;;;8.75;7.00;;;;;21.87;60.70;101755.56;5005398;28;45529;-68
2021/07/19 01:22:59;;;;;;;;;6.00;6.00;;;;;21.85;61.04;101752.22;5008272;28;45671;-69
2021/07/19 01:25:43;;;;;;;;;8.00;7.00;;;;;21.82;61.10;101744.56;5008596;28;45935;-71
2021/07/19 01:28:36;;;;;;;;;9.00;7.25;;;;;21.80;61.46;101749.31;5010185;28;45485;-69
2021/07/19 01:31:08;;;;;;;;;7.50;6.75;;;;;21.76;61.19;101745.34;5002588;28;45580;-69
2021/07/19 01:33:35;;;;;;;;;7.75;7.00;;;;;21.74;61.31;101742.03;5010460;28;45479;-71
2021/07/19 01:36:02;;;;;;;;;8.00;7.00;;;;;21.70;61.57;101744.28;5006330;28;45826;-68
2021/07/19 01:38:28;;;;;;;;;4.75;4.75;;;;;21.67;62.05;101737.44;5010397;28;45829;-70
2021/07/19 01:40:54;;;;;;;;;6.50;5.25;;;;;21.65;61.76;101739.50;5004648;28;46066;-68
2021/07/19 01:43:21;;;;;;;;;8.00;6.75;;;;;21.63;61.88;101744.22;5006848;28;45548;-71
2021/07/19 01:45:48;;;;;;;;;9.25;7.00;;;;;21.61;61.96;101742.78;5005548;28;46432;-67
2021/07/19 01:48:14;;;;;;;;;7.25;6.75;;;;;21.57;62.08;101736.16;5004673;28;45522;-71
2021/07/19 01:50:40;;;;;;;;;6.75;6.50;;;;;21.55;62.47;101739.03;5012634;28;45901;-71
2021/07/19 01:53:08;;;;;;;;;8.75;8.00;;;;;21.52;62.51;101736.75;5006807;28;45870;-68
2021/07/19 01:55:33;;;;;;;;;7.25;7.25;;;;;21.50;62.51;101741.47;5003755;28;45905;-70
2021/07/19 01:58:00;;;;;;;;;7.00;6.00;;;;;21.47;62.67;101731.94;5004998;28;45612;-68
2021/07/19 02:00:26;;;;;;;;;6.50;6.00;;;;;21.45;62.56;101744.75;5009083;28;45455;-72
2021/07/19 02:02:52;;;;;;;;;8.00;6.00;;;;;21.43;62.63;101744.13;5002949;28;45527;-69
2021/07/19 02:05:19;;;;;;;;;7.00;7.00;;;;;21.42;63.00;101744.34;5006294;28;47015;-71
2021/07/19 02:07:49;;;;;;;;;8.00;8.00;;;;;21.40;62.78;101739.13;5002062;28;45618;-71
2021/07/19 02:10:16;;;;;;;;;7.75;7.75;;;;;21.39;63.02;101736.63;5005482;28;45507;-69
2021/07/19 02:12:43;;;;;;;;;9.00;8.00;;;;;21.37;63.35;101736.81;5011153;28;45406;-67
2021/07/19 02:15:16;;;;;;;;;8.00;6.50;;;;;21.35;63.56;101735.34;5004518;28;45620;-69
2021/07/19 02:17:47;;;;;;;;;8.00;6.25;;;;;21.33;63.28;101734.72;5010774;28;45464;-68
2021/07/19 02:20:13;;;;;;;;;10.00;7.00;;;;;21.30;63.54;101730.56;5010086;28;45399;-71
2021/07/19 02:22:40;;;;;;;;;10.00;8.25;;;;;21.31;63.41;101739.44;5002784;28;45542;-71
2021/07/19 02:25:08;;;;;;;;;9.50;9.50;;;;;21.28;63.59;101738.00;5008832;28;46224;-69
2021/07/19 02:27:38;;;;;;;;;8.00;6.25;;;;;21.26;63.92;101740.03;5007373;28;46467;-67
2021/07/19 02:30:07;;;;;;;;;9.50;7.75;;;;;21.24;63.64;101737.56;5002374;28;45565;-69
2021/07/19 02:32:38;;;;;;;;;7.50;7.00;;;;;21.23;63.45;101738.56;5002284;28;45561;-67
2021/07/19 02:35:06;;;;;;;;;8.75;7.50;;;;;21.21;64.09;101742.47;5000181;28;45576;-69
2021/07/19 02:37:36;;;;;;;;;7.25;7.00;;;;;21.19;63.85;101745.38;5005763;28;45763;-69
2021/07/19 02:40:04;;;;;;;;;10.00;8.25;;;;;21.16;64.17;101739.56;5007530;28;45605;-68
2021/07/19 02:42:29;;;;;;;;;11.00;8.50;;;;;21.15;64.14;101749.47;5004018;28;45651;-68
2021/07/19 02:44:55;;;;;;;;;12.00;10.25;;;;;21.12;64.25;101739.13;5004970;28;46315;-71
2021/07/19 02:47:21;;;;;;;;;8.75;7.50;;;;;21.11;64.13;101747.38;5001620;28;45478;-71
2021/07/19 02:49:46;;;;;;;;;9.75;8.00;;;;;21.09;64.60;101746.72;5006358;28;45486;-69
2021/07/19 02:52:12;;;;;;;;;10.25;8.00;;;;;21.06;64.27;101745.25;5003064;28;45623;-69
2021/07/19 02:54:40;;;;;;;;;9.25;8.25;;;;;21.04;64.42;101747.31;5002444;28;47070;-68
2021/07/19 02:57:08;;;;;;;;;8.75;8.75;;;;;21.02;64.73;101746.69;5003350;28;45523;-68
2021/07/19 02:59:33;;;;;;;;;7.50;6.50;;;;;21.01;64.45;101747.69;5006654;28;45871;-68
2021/07/19 03:02:01;;;;;;;;;12.25;8.00;;;;;20.98;64.71;101737.34;5004425;28;46610;-68
2021/07/19 03:04:27;;;;;;;;;8.50;7.00;;;;;20.95;64.58;101740.44;5006804;28;46316;-71
2021/07/19 03:06:59;;;;;;;;;7.50;6.00;;;;;20.94;64.90;101741.44;5009659;28;45732;-71
2021/07/19 03:09:30;;;;;;;;;10.50;8.50;;;;;20.91;65.00;101742.66;5004068;28;45519;-71
2021/07/19 03:11:56;;;;;;;;;12.75;10.50;;;;;20.90;65.13;101740.19;5003605;28;45880;-68
2021/07/19 03:14:25;;;;;;;;;10.00;8.75;;;;;20.88;64.80;101737.69;5006880;28;45728;-69
2021/07/19 03:16:52;;;;;;;;;11.00;8.00;;;;;20.86;65.12;101737.03;5002356;28;45723;-69
2021/07/19 03:19:20;;;;;;;;;9.00;8.00;;;;;20.82;65.40;101739.28;4999887;28;45578;-68
2021/07/19 03:21:47;;;;;;;;;7.00;7.00;;;;;20.81;65.50;101734.91;5008406;28;45651;-69
2021/07/19 03:24:14;;;;;;;;;9.50;8.00;;;;;20.79;65.53;101736.97;4988193;28;47195;-71
2021/07/19 03:26:41;;;;;;;;;11.50;9.25;;;;;20.77;65.58;101733.66;5010623;28;45667;-69
2021/07/19 03:29:09;;;;;;;;;9.00;8.75;;;;;20.75;65.64;101741.06;5008007;28;45503;-68
2021/07/19 03:31:35;;;;;;;;;9.75;8.75;;;;;20.72;65.49;101738.78;5008663;28;45453;-68
2021/07/19 03:34:03;;;;;;;;;12.00;9.00;;;;;20.71;65.53;101734.41;5011845;28;45955;-67
2021/07/19 03:36:31;;;;;;;;;12.75;10.25;;;;;20.70;65.80;101734.63;5011227;28;46313;-67
2021/07/19 03:38:57;;;;;;;;;9.50;9.50;;;;;20.68;65.47;101723.25;5014191;28;49297;-66
2021/07/19 03:41:24;;;;;;;;;11.00;9.50;;;;;20.67;65.91;101724.25;4993818;28;45653;-66
2021/07/19 03:43:50;;;;;;;;;8.25;8.00;;;;;20.64;65.82;101720.09;5011190;28;47377;-69
2021/07/19 03:46:19;;;;;;;;;12.25;7.50;;;;;20.62;66.06;101722.13;5015860;28;45536;-72
2021/07/19 03:48:44;;;;;;;;;12.75;9.75;;;;;20.60;65.88;101724.19;5011732;28;45589;-69
2021/07/19 03:51:10;;;;;;;;;9.25;9.25;;;;;20.58;66.12;101723.56;5006363;28;45556;-71
2021/07/19 03:53:36;;;;;;;;;12.50;9.25;;;;;20.57;66.01;101719.19;5010075;28;46023;-68
2021/07/19 03:56:02;;;;;;;;;12.00;11.00;;;;;20.55;66.40;101721.25;5007690;28;45557;-70
2021/07/19 03:58:30;;;;;;;;;12.25;7.75;;;;;20.53;66.03;101718.72;5010188;28;45653;-71
2021/07/19 04:00:58;;;;;;;;;8.25;8.00;;;;;20.52;66.22;101724.28;5011325;28;46008;-67
2021/07/19 04:03:27;;;;;;;;;11.00;8.25;;;;;20.51;66.19;101725.31;5008095;28;45867;-72
2021/07/19 04:06:03;;;;;;;;;9.00;9.00;;;;;20.50;66.50;101726.31;5006899;28;45741;-69
2021/07/19 04:08:32;;;;;;;;;11.50;9.00;;;;;20.47;66.34;101730.22;5010621;28;45592;-70
2021/07/19 04:11:00;;;;;;;;;11.25;8.50;;;;;20.47;66.54;101732.06;5007454;28;45842;-69
2021/07/19 04:13:26;;;;;;;;;10.50;9.75;;;;;20.46;66.59;101733.09;5017387;28;47093;-67
2021/07/19 04:15:52;;;;;;;;;10.00;9.50;;;;;20.45;66.76;101731.44;5012234;28;45527;-69
2021/07/19 04:18:21;;;;;;;;;11.00;10.25;;;;;20.44;66.68;101730.59;5008609;28;45704;-67
2021/07/19 04:20:52;;;;;;;;;8.00;7.50;;;;;20.43;66.90;101733.50;5007110;28;45514;-71
2021/07/19 04:23:19;;;;;;;;;11.25;9.50;;;;;20.40;66.75;101730.16;5014427;28;47809;-70
2021/07/19 04:25:46;;;;;;;;;12.00;10.25;;;;;20.39;66.71;101728.47;5006849;28;45558;-66
2021/07/19 04:28:30;;;;;;;;;15.00;9.75;;;;;20.39;66.97;101723.13;5008097;28;45493;-68
2021/07/19 04:30:57;;;;;;;;;12.00;9.25;;;;;20.37;66.90;101722.47;5008503;28;45513;-66
2021/07/19 04:33:23;;;;;;;;;10.25;10.00;;;;;20.38;66.98;101720.63;5005681;28;45629;-68
2021/07/19 04:35:49;;;;;;;;;8.25;8.25;;;;;20.38;67.18;101716.09;5009345;28;45678;-71
2021/07/19 04:38:17;;;;;;;;;11.25;9.50;;;;;20.41;67.02;101721.06;5003404;28;48003;-68
2021/07/19 04:40:51;;;;;;;;;11.25;9.50;;;;;20.41;67.12;101713.03;5000894;28;45575;-71
2021/07/19 04:43:17;;;;;;;;;13.75;11.00;;;;;20.44;67.03;101716.34;5001538;28;47433;-67
2021/07/19 04:45:47;;;;;;;;;10.50;9.50;;;;;20.47;67.04;101719.47;5004667;28;45407;-70
2021/07/19 04:48:14;;;;;;;;;14.25;13.00;;;;;20.50;69.10;101724.47;5001153;28;45515;-69
2021/07/19 04:50:39;;;;;;;;;11.00;9.00;;;;;20.52;66.72;101717.03;5001958;28;45465;-68
2021/07/19 04:53:05;;;;;;;;;10.50;8.25;;;;;20.52;68.10;101725.09;5007792;28;47004;-65
2021/07/19 04:55:32;;;;;;;;;13.00;10.25;;;;;20.54;67.18;101716.88;5003554;28;46045;-66
2021/07/19 04:57:59;;;;;;;;;15.00;11.75;;;;;20.56;67.28;101720.22;5009426;28;45547;-65
2021/07/19 05:00:26;;;;;;;;;11.75;10.50;;;;;20.60;66.98;101716.16;5007326;28;45581;-67
2021/07/19 05:02:53;;;;;;;;;12.75;10.00;;;;;20.63;67.27;101723.81;5003047;28;46450;-66
2021/07/19 05:05:22;;;;;;;;;12.25;10.25;;;;;20.70;67.33;101726.56;5005436;28;45592;-65
2021/07/19 05:07:49;;;;;;;;;11.50;10.25;;;;;20.73;66.94;101731.56;5004598;28;45732;-71
2021/07/19 05:10:16;;;;;;;;;10.75;9.75;;;;;20.76;67.11;101729.28;5012680;28;45522;-71
2021/07/19 05:12:45;;;;;;;;;13.00;11.00;;;;;20.82;66.95;101733.91;5008168;28;46118;-67
2021/07/19 05:15:11;;;;;;;;;13.00;10.75;;;;;20.87;66.85;101738.72;5000708;28;45587;-68
2021/07/19 05:17:39;;;;;;;;;13.00;11.00;;;;;20.92;66.76;101738.09;5002637;28;45505;-71
2021/07/19 05:20:12;;;;;;;;;11.50;10.00;;;;;20.98;66.67;101737.34;5007432;28;45643;-67
2021/07/19 05:22:38;;;;;;;;;13.25;13.00;;;;;21.07;66.56;101740.72;5002589;28;46198;-64
2021/07/19 05:25:04;;;;;;;;;11.25;10.00;;;;;21.14;66.87;101738.91;5006709;28;45556;-66
2021/07/19 05:27:32;;;;;;;;;12.00;10.00;;;;;21.22;65.71;101733.41;5005838;28;45798;-66
2021/07/19 05:29:57;;;;;;;;;12.50;11.00;;;;;21.27;65.77;101734.47;5001388;28;45591;-66
2021/07/19 05:32:23;;;;;;;;;9.25;9.25;;;;;21.35;65.59;101738.03;5000766;28;46525;-65
2021/07/19 05:34:48;;;;;;;;;11.00;10.00;;;;;21.41;65.33;101735.44;5001315;28;45887;-66
2021/07/19 05:37:13;;;;;;;;;12.50;10.75;;;;;21.47;65.22;101740.00;5003531;28;45786;-64
2021/07/19 05:39:39;;;;;;;;;11.00;10.00;;;;;21.54;64.79;101744.59;5006856;28;45569;-66
2021/07/19 05:42:04;;;;;;;;;10.75;10.50;;;;;21.59;64.85;101737.59;5000394;28;46876;-66
2021/07/19 05:44:30;;;;;;;;;14.00;12.00;;;;;21.66;64.68;101751.06;5007196;28;45450;-66
2021/07/19 05:46:55;;;;;;;;;11.25;10.25;;;;;21.72;64.47;101744.09;5002354;28;45490;-63
2021/07/19 05:49:21;;;;;;;;;11.00;10.00;;;;;21.76;64.57;101739.97;5003736;28;45941;-70
2021/07/19 05:51:46;;;;;;;;;16.50;9.25;;;;;21.82;63.89;101749.94;5011165;28;46122;-66
2021/07/19 05:54:11;;;;;;;;;13.00;10.00;;;;;21.87;64.04;101744.78;5003066;28;45490;-67
2021/07/19 05:56:37;;;;;;;;;12.75;10.75;;;;;21.93;63.90;101741.28;5003418;28;45427;-70
2021/07/19 05:59:03;;;;;;;;;10.50;9.25;;;;;21.97;63.99;101739.84;5002829;28;45439;-68
2021/07/19 06:01:28;;;;;;;;;12.75;10.00;;;;;22.02;63.90;101744.66;5004036;28;46103;-70
2021/07/19 06:03:54;;;;;;;;;12.25;10.75;;;;;22.06;63.82;101743.22;5006212;28;45805;-64
2021/07/19 06:06:19;;;;;;;;;10.00;8.00;;;;;22.10;63.72;101736.38;5005569;28;45786;-65
2021/07/19 06:08:45;;;;;;;;;10.75;9.00;;;;;22.15;63.67;101738.47;5004750;28;45627;-66
2021/07/19 06:11:10;;;;;;;;;14.50;12.00;;;;;22.20;63.85;101738.72;4999923;28;46158;-72
2021/07/19 06:13:36;;;;;;;;;10.50;10.00;;;;;22.24;63.29;101743.50;5002959;28;45531;-67
2021/07/19 06:16:01;;;;;;;;;14.75;12.75;;;;;22.26;63.25;101741.47;4987582;28;45513;-67
2021/07/19 06:18:26;;;;;;;;;12.25;11.25;;;;;22.28;63.12;101744.78;5000637;28;46042;-66
2021/07/19 06:20:52;;;;;;;;;11.75;10.00;;;;;22.33;63.07;101739.63;5001061;28;45477;-66
2021/07/19 06:23:17;;;;;;;;;10.50;10.00;;;;;22.39;63.02;101731.75;5002072;28;45938;-65
2021/07/19 06:25:43;;;;;;;;;10.25;10.00;;;;;22.45;62.93;101739.84;5004417;28;46063;-65
2021/07/19 06:28:10;;;;;;;;;13.25;11.00;;;;;22.53;62.90;101739.66;5002223;28;45509;-67
2021/07/19 06:30:35;;;;;;;;;12.75;10.00;;;;;22.61;62.43;101744.03;5012630;28;45575;-66
2021/07/19 06:33:02;;;;;;;;;11.75;11.25;;;;;22.66;62.27;101736.16;5005666;28;45446;-67
2021/07/19 06:35:27;;;;;;;;;10.50;10.00;;;;;22.73;62.54;101746.94;5002303;28;45496;-71
2021/07/19 06:37:53;;;;;;;;;7.25;7.25;;;;;22.82;62.02;101744.88;5007015;28;45510;-68
2021/07/19 06:40:19;;;;;;;;;11.50;9.75;;;;;22.89;61.85;101751.91;5001357;28;46136;-72
2021/07/19 06:42:45;;;;;;;;;12.25;11.25;;;;;22.98;61.93;101749.06;4991968;28;45843;-68
2021/07/19 06:45:13;;;;;;;;;13.50;12.00;;;;;23.05;61.38;101750.72;5004239;28;45465;-66
2021/07/19 06:47:40;;;;;;;;;14.50;9.50;;;;;23.13;61.26;101752.38;5009000;28;45584;-67
2021/07/19 06:50:08;;;;;;;;;10.00;10.00;;;;;23.20;60.89;101750.50;5005341;28;46269;-72
2021/07/19 06:52:34;;;;;;;;;10.25;8.75;;;;;23.23;60.44;101749.25;5002987;28;45651;-67
2021/07/19 06:54:59;;;;;;;;;10.25;9.50;;;;;23.21;61.27;101751.34;5010295;28;45545;-66
2021/07/19 06:57:25;;;;;;;;;12.00;11.25;;;;;23.23;60.93;101750.09;5006910;28;45564;-66
2021/07/19 06:59:50;;;;;;;;;9.50;9.50;;;;;23.31;60.96;101743.66;5008918;28;46176;-68
2021/07/19 07:02:16;;;;;;;;;14.75;12.00;;;;;23.34;60.26;101741.38;5004634;28;45560;-68
2021/07/19 07:04:42;;;;;;;;;13.75;9.75;;;;;23.32;60.42;101740.75;5005186;28;45776;-70
2021/07/19 07:07:08;;;;;;;;;12.00;11.25;;;;;23.33;61.46;101739.69;5006974;28;45498;-68
2021/07/19 07:09:34;;;;;;;;;13.00;9.25;;;;;23.39;60.50;101738.88;5005961;28;45533;-67
2021/07/19 07:11:59;;;;;;;;;13.00;11.75;;;;;23.51;60.36;101738.22;5005113;28;45753;-67
2021/07/19 07:14:24;;;;;;;;;9.50;9.00;;;;;23.60;61.67;101745.88;5006499;28;45565;-70
2021/07/19 07:16:50;;;;;;;;;12.25;11.25;;;;;23.69;60.71;101741.09;5006031;28;45550;-71
2021/07/19 07:19:16;;;;;;;;;10.75;9.75;;;;;23.82;60.25;101737.53;5007200;28;45524;-67
2021/07/19 07:21:42;;;;;;;;;12.50;12.50;;;;;23.87;59.18;101745.00;5007338;28;45431;-69
2021/07/19 07:24:07;;;;;;;;;14.25;11.00;;;;;23.95;59.37;101750.16;4988603;28;45553;-68
2021/07/19 07:26:33;;;;;;;;;10.50;8.50;;;;;24.11;59.76;101743.44;5005634;28;45565;-70
2021/07/19 07:28:58;;;;;;;;;11.50;10.50;;;;;24.28;58.43;101743.75;5006077;28;45419;-70
2021/07/19 07:31:27;;;;;;;;;11.25;10.00;;;;;24.42;58.46;101745.34;5007341;28;45759;-70
2021/07/19 07:33:55;;;;;;;;;13.50;9.00;;;;;24.58;56.85;101742.16;5009364;28;45478;-67
2021/07/19 07:36:20;;;;;;;;;11.50;10.25;;;;;24.72;57.12;101736.66;5002396;28;45542;-66
2021/07/19 07:38:46;;;;;;;;;12.00;10.00;;;;;24.89;57.30;101733.19;5006826;28;45517;-67
2021/07/19 07:41:11;;;;;;;;;11.50;9.75;;;;;25.07;56.21;101737.00;5004771;28;45642;-71
2021/07/19 07:43:36;;;;;;;;;10.00;10.00;;;;;25.30;56.46;101736.41;5003296;28;45712;-69
2021/07/19 07:46:02;;;;;;;;;12.50;10.00;;;;;25.57;56.84;101736.97;4995238;28;45498;-67
2021/07/19 07:48:29;;;;;;;;;11.00;10.50;;;;;25.89;56.05;101731.38;5006126;28;45907;-71
2021/07/19 07:50:55;;;;;;;;;10.50;8.25;;;;;26.21;53.32;101731.19;5002189;28;45996;-70
2021/07/19 07:53:20;;;;;;;;;11.00;9.25;;;;;27.17;52.75;101723.84;5001833;28;45550;-77
2021/07/19 07:55:46;;;;;;;;;8.00;7.50;;;;;30.25;49.87;101724.47;4994509;28;46097;-73
2021/07/19 07:58:11;;;;;;;;;13.00;10.00;;;;;33.67;38.25;101734.84;5005111;28;45576;-73
2021/07/19 08:00:37;;;;;;;;;5.00;4.50;;;;;36.39;34.00;101733.81;5002925;28;45489;-70
2021/07/19 08:03:02;;;;;;;;;8.25;8.25;;;;;38.19;29.73;101729.19;5005635;28;45635;-68
2021/07/19 08:05:28;;;;;;;;;10.25;8.50;;;;;39.70;29.16;101743.13;5006150;28;45782;-71
2021/07/19 08:07:53;;;;;;;;;12.50;11.25;;;;;41.08;31.02;101739.72;5004530;28;45792;-69
2021/07/19 08:10:18;;;;;;;;;7.50;7.00;;;;;42.39;25.88;101746.03;5003316;28;45596;-68
2021/07/19 08:12:44;;;;;;;;;8.00;8.00;;;;;43.17;27.86;101742.34;5007210;28;45482;-74
2021/07/19 08:15:11;;;;;;;;;8.50;8.00;;;;;44.21;25.63;101742.72;5007308;28;45553;-68
2021/07/19 08:17:37;;;;;;;;;6.75;6.50;;;;;44.68;26.35;101738.41;5006936;28;46077;-70
2021/07/19 08:20:04;;;;;;;;;12.25;7.00;;;;;45.11;23.25;101744.25;5005769;28;45521;-67
2021/07/19 08:22:31;;;;;;;;;8.25;6.00;;;;;45.26;23.50;101741.47;5004141;28;45509;-67
2021/07/19 08:24:58;;;;;;;;;6.50;6.50;;;;;46.07;23.25;101740.88;5011808;28;45481;-75
2021/07/19 08:27:24;;;;;;;;;7.00;6.25;;;;;46.92;22.26;101734.41;4988165;28;46676;-74
2021/07/19 08:29:49;;;;;;;;;6.25;6.25;;;;;47.66;16.18;101739.50;5004591;28;45604;-69
2021/07/19 08:32:16;;;;;;;;;7.00;6.00;;;;;47.95;16.87;101737.06;5004537;28;45893;-68
2021/07/19 08:34:44;;;;;;;;;7.00;6.00;;;;;48.22;20.46;101738.59;5001640;28;45476;-71
2021/07/19 08:37:09;;;;;;;;;5.25;3.50;;;;;48.64;18.87;101731.81;5003465;28;46340;-70
2021/07/19 08:39:35;;;;;;;;;5.50;5.00;;;;;49.05;19.21;101728.91;5009536;28;45667;-72
2021/07/19 08:42:01;;;;;;;;;6.00;5.00;;;;;49.41;19.28;101731.13;4986613;28;45576;-68
2021/07/19 08:44:28;;;;;;;;;5.75;5.50;;;;;49.59;18.72;101729.22;5004779;28;45982;-67
2021/07/19 08:46:53;;;;;;;;;5.75;4.00;;;;;49.16;15.42;101731.78;5006631;28;46140;-68
2021/07/19 08:49:18;;;;;;;;;5.50;4.75;;;;;49.09;18.22;101723.34;5007814;28;45469;-75
2021/07/19 08:51:44;;;;;;;;;6.00;4.50;;;;;49.69;17.92;101731.28;5010263;28;45570;-70
2021/07/19 08:54:13;;;;;;;;;6.50;5.75;;;;;49.96;17.55;101719.72;5008582;28;45569;-70
2021/07/19 08:56:39;;;;;;;;;8.25;6.00;;;;;50.52;16.12;101729.47;5002851;28;47034;-74
2021/07/19 08:59:10;;;;;;;;;7.50;7.50;;;;;50.87;16.97;101727.88;5005675;28;46935;-68
2021/07/19 09:01:40;;;;;;;;;5.50;5.50;;;;;51.16;16.54;101719.38;4984100;28;45588;-71
2021/07/19 09:04:06;;;;;;;;;7.00;4.25;;;;;51.50;15.95;101716.88;5007306;28;45940;-70
2021/07/19 09:06:32;;;;;;;;;6.00;6.00;;;;;51.78;15.70;101720.78;5009882;28;45835;-76
2021/07/19 09:08:58;;;;;;;;;5.00;4.00;;;;;52.06;15.89;101722.66;5003915;28;45679;-74
2021/07/19 09:11:24;;;;;;;;;8.00;5.25;;;;;51.60;11.83;101723.66;5001921;28;45631;-66
2021/07/19 09:14:04;;;;;;;;;6.50;4.50;;;;;50.77;14.96;101714.63;5006149;28;45434;-66
2021/07/19 09:16:49;;;;;;;;;7.00;5.50;;;;;50.26;11.60;101727.03;5011836;28;48482;-66
2021/07/19 09:19:20;;;;;;;;;4.50;4.00;;;;;49.37;15.20;101708.69;5006423;28;45545;-73
2021/07/19 09:21:48;;;;;;;;;6.25;4.75;;;;;49.06;13.19;101708.06;5012164;28;45487;-72
2021/07/19 09:24:18;;;;;;;;;3.50;3.50;;;;;48.19;14.54;101704.94;5005371;28;45682;-70
2021/07/19 09:26:46;;;;;;;;;4.75;3.75;;;;;47.49;17.13;101706.50;4988911;28;47682;-74
2021/07/19 09:29:13;;;;;;;;;6.75;5.25;;;;;47.35;16.65;101718.28;5001725;28;45971;-71
2021/07/19 09:31:41;;;;;;;;;6.50;5.00;;;;;47.24;15.12;101711.75;5003936;28;45840;-74
2021/07/19 09:34:17;;;;;;;;;6.00;5.25;;;;;46.87;17.25;101713.16;5004037;28;45513;-67
2021/07/19 09:36:54;;;;;;;;;4.50;4.25;;;;;45.73;16.78;101713.78;5006488;28;46272;-70
2021/07/19 09:39:19;;;;;;;;;4.00;4.00;;;;;44.23;16.91;101717.31;5003706;28;45623;-72
2021/07/19 09:41:44;;;;;;;;;5.00;4.50;;;;;43.36;19.14;101713.97;5006034;28;45659;-70
2021/07/19 09:44:10;;;;;;;;;5.50;3.75;;;;;42.95;18.17;101699.13;5005041;28;45607;-77
2021/07/19 09:46:35;;;;;;;;;10.00;5.75;;;;;42.23;18.70;101697.81;5007191;28;46272;-72
2021/07/19 09:49:03;;;;;;;;;7.25;5.75;;;;;41.16;21.00;101700.09;5011343;28;45508;-73
2021/07/19 09:51:34;;;;;;;;;7.00;6.00;;;;;40.71;22.69;101693.09;5003638;28;45779;-73
2021/07/19 09:54:12;;;;;;;;;5.00;5.00;;;;;40.51;21.31;101699.34;4991032;28;45606;-70
2021/07/19 09:56:39;;;;;;;;;5.75;4.75;;;;;40.09;22.92;101686.03;5001478;28;47054;-69
2021/07/19 09:59:10;;;;;;;;;5.25;4.50;;;;;39.66;23.02;101699.84;5008108;28;45903;-71
2021/07/19 10:01:41;;;;;;;;;5.75;4.75;;;;;39.36;23.80;101680.28;5005712;28;45677;-71
2021/07/19 10:04:15;;;;;;;;;5.25;5.25;;;;;39.51;23.49;101681.78;5007262;28;45545;-70
2021/07/19 10:06:45;;;;;;;;;8.00;5.00;;;;;39.54;23.96;101687.47;5008044;28;47245;-70
2021/07/19 10:09:12;;;;;;;;;6.00;6.00;;;;;39.63;23.96;101681.94;4990099;28;45614;-69
2021/07/19 10:11:49;;;;;;;;;8.75;5.25;;;;;39.81;24.71;101677.25;5000783;28;45564;-71
2021/07/19 10:14:30;;;;;;;;;8.25;6.00;;;;;40.09;24.29;101690.75;4997205;28;45513;-69
2021/07/19 10:17:00;;;;;;;;;4.75;4.75;;;;;40.26;23.07;101674.16;5008990;28;46244;-70
2021/07/19 10:19:26;;;;;;;;;6.00;6.00;;;;;40.41;24.10;101687.47;5004647;28;45818;-70
2021/07/19 10:21:53;;;;;;;;;5.75;4.50;;;;;40.53;23.01;101678.47;5006417;28;45419;-69
2021/07/19 10:24:20;;;;;;;;;5.75;5.50;;;;;40.55;23.78;101678.13;5002903;28;45583;-67
2021/07/19 10:26:46;;;;;;;;;7.00;6.00;;;;;40.67;24.84;101669.97;5008275;28;46121;-69
2021/07/19 10:29:13;;;;;;;;;4.00;4.00;;;;;40.44;23.30;101690.72;5009910;28;45608;-69
2021/07/19 10:31:38;;;;;;;;;7.00;6.25;;;;;40.14;25.08;101674.00;5006736;28;45556;-72
2021/07/19 10:34:06;;;;;;;;;6.50;5.00;;;;;40.26;25.92;101671.41;5015764;28;45526;-69
2021/07/19 10:36:43;;;;;;;;;5.25;5.25;;;;;40.38;22.81;101679.00;5006185;28;45589;-71
2021/07/19 10:39:14;;;;;;;;;8.00;6.00;;;;;39.75;23.40;101681.31;4996525;28;45582;-72
2021/07/19 10:41:39;;;;;;;;;5.25;5.25;;;;;39.18;24.92;101681.38;5005727;28;45478;-69
2021/07/19 10:44:08;;;;;;;;;6.25;6.25;;;;;39.28;24.80;101681.06;5006892;28;45733;-70
2021/07/19 10:46:34;;;;;;;;;6.75;6.75;;;;;39.42;24.36;101654.13;5010101;28;46504;-69
2021/07/19 10:49:13;;;;;;;;;7.75;7.00;;;;;39.71;23.87;101652.66;5010598;28;45589;-70
2021/07/19 10:51:47;;;;;;;;;6.00;5.00;;;;;39.91;24.33;101660.34;5014372;28;45685;-71
2021/07/19 10:54:26;;;;;;;;;8.00;5.50;;;;;39.63;23.54;101645.19;5009101;28;45464;-68
2021/07/19 10:56:55;;;;;;;;;6.75;6.75;;;;;39.19;24.34;101660.88;5012011;28;46354;-70
2021/07/19 10:59:33;;;;;;;;;0.00;0.00;;;;;39.20;24.12;101660.56;5009934;28;45534;-68
2021/07/19 11:01:59;;;;;;;;;5.00;5.00;;;;;39.48;25.63;101665.84;5012812;28;45506;-71
2021/07/19 11:04:25;;;;;;;;;6.25;6.00;;;;;39.77;23.06;101654.94;5007380;28;45979;-69
2021/07/19 11:06:58;;;;;;;;;6.75;4.75;;;;;39.75;22.92;101657.22;5011341;28;46185;-68
2021/07/19 11:09:36;;;;;;;;;5.75;5.75;;;;;39.81;24.89;101654.31;5004719;28;45573;-70
2021/07/19 11:12:18;;;;;;;;;9.00;7.75;;;;;40.06;24.89;101652.66;5004642;28;45724;-70
2021/07/19 11:14:47;;;;;;;;;6.00;6.00;;;;;40.39;24.21;101653.75;5011157;28;45711;-69
2021/07/19 11:17:13;;;;;;;;;0.00;0.00;;;;;40.77;22.23;101658.53;5009563;28;45579;-69
2021/07/19 11:19:39;;;;;;;;;8.25;6.75;;;;;40.90;23.07;101636.47;4987376;28;45570;-71
2021/07/19 11:22:09;;;;;;;;;8.00;8.00;;;;;41.09;22.55;101652.66;5003527;28;45540;-69